Flight Track Log - Related Links

Times and Time Zones

All times are in EST time to prevent confusion due to time zone crossing. See the SKW4511 flight status page for this flight to view local times or setup timezone preferences in your user account.

Time Position Orientation Groundspeed Altitude Reporting Facility
EST Latitude Longitude Course Direction KTS MPH feet Rate Location/Type
Wed 02:21:29 PM 33.9333 -118.4667 212° Southwest 225 259 2,800  Level Southern California TRACON
Wed 02:22:29 PM 33.8667 -118.5167 212° Southwest 275 316 5,500 2,673 Climbing Southern California TRACON
Wed 02:23:10 PM 33.8067 -118.5181 181° South 291 335 7,300 2,621 Climbing Los Angeles Center
Wed 02:24:12 PM 33.7208 -118.5019 171° South 316 364 10,000 1,776 Climbing Los Angeles Center
Wed 02:25:15 PM 33.6547 -118.4217 135° Southeast 351 404 11,000 480 Climbing Los Angeles Center
Wed 02:26:17 PM 33.5864 -118.3125 127° Southeast 402 463 11,000  Level Los Angeles Center
Wed 02:27:19 PM 33.5192 -118.1753 120° Southeast 405 466 11,000  Level Los Angeles Center
Wed 02:28:21 PM 33.4642 -118.0586 119° Southeast 404 465 11,000  Level Los Angeles Center
Wed 02:29:23 PM 33.4050 -117.9425 121° Southeast 407 468 11,000  Level Los Angeles Center
Wed 02:30:25 PM 33.3450 -117.8264 122° Southeast 410 472 11,000  Level Los Angeles Center
Wed 02:31:27 PM 33.2844 -117.7100 122° Southeast 412 474 11,000  Level Los Angeles Center
Wed 02:32:36 PM 33.2000 -117.5667 125° Southeast 408 470 11,000  Level Southern California TRACON
Wed 02:33:36 PM 33.1500 -117.4500 117° Southeast 411 473 11,000  Level Southern California TRACON
Wed 02:34:36 PM 33.0500 -117.3833 151° Southeast 408 470 11,000 -250 Level Southern California TRACON
Wed 02:35:36 PM 32.9592 -117.3256 152° Southeast 406 467 10,500 -835 Descending Los Angeles Center
Wed 02:36:31 PM 32.8833 -117.2833 155° Southeast 327 376 9,400 -1,670 Descending Southern California TRACON
Wed 02:37:31 PM 32.8167 -117.2167 140° Southeast 310 357 7,300 -2,150 Descending Southern California TRACON
Wed 02:38:31 PM 32.7667 -117.1333 125° Southeast 300 345 5,100 -1,150 Descending Southern California TRACON
Wed 02:39:31 PM 32.7500 -117.0500 103° East 240 276 5,000 -50 Descending Southern California TRACON
Wed 02:40:32 PM 32.7500 -116.9833 90° East 212 244 5,000  Level Southern California TRACON
Wed 02:41:32 PM 32.7167 -116.9333 128° Southeast 222 255 5,000 -450 Level Southern California TRACON
Wed 02:42:32 PM 32.6833 -116.9667 220° Southwest 192 221 4,100 -992 Descending Southern California TRACON
Wed 02:43:33 PM 32.7000 -117.0333 287° West 190 219 3,000 -1,041 Descending Southern California TRACON
Wed 02:44:33 PM 32.7167 -117.0833 292° West 178 205 2,000 -850 Descending Southern California TRACON
Wed 02:45:33 PM 32.7167 -117.1333 270° West 143 165 1,300 -800 Descending Southern California TRACON
Wed 02:46:33 PM 32.7333 -117.1833 292° West 141 162 400 -900 Descending Southern California TRACON

Login

Don't have an account? Register now (free) for customized features, flight alerts, and more!